Charter Quote
Worldwide +1-877-727-2538 Call
  Now   Hiring! 
SAFETY RELIABILITY EXPERIENCE

Kijang Airport Private Jet Charter

Kijang Airport Private Jet Charter Services

Paramount Business Jets offers private jet charter flights and luxury airliner charters to and from Kijang Airport.

Kijang Airport Charter Flight Price Estimates
Paramount Business Jets BBB Business Review

Paramount Business Jets offers private jet charter flights and luxury airliner charters to and from Kijang Airport.

AIRPORT INFORMATION
ICAOWIDN
IATATNJ
LOCATIONTanjung Pinang, Indonesia
FACILITY TYPEAIRPORT
Runway Length (ft) Width (ft) Surface Type Elevation (ft)
22/04 6089 98 ASP 55.96721

At Paramount Business Jets you can hire chartered private jets to and from Kijang Airport with as little as 4 hours of notice. All flights booked via Paramount Business Jets are operated by certified direct air carriers that meet and exceed the FAA part 135 and 121 protocol or a foreign equivalent safety authority. Furthermore, Paramount Business Jets subscribes to ARGUS for their third party safety checks of operators, aircraft, and crews prior each and every flight to and from Kijang Airport and worldwide.

  • Quote a trip using Kijang Airport or call us 24/7 - 365 days a year at +1-877-727-2538.
Questions? Call +1-877-727-2538

FBOs at Kijang Airport, WIDN, TNJ

NAME ADDRESS PHONE WEBSITE
Merpati Nusantara    (623) 612-4427   
Koperasi Grya Wiata    (627) 712-1434   

METAR Weather Data at Kijang Airport, WIDN, TNJ

STATIONWIDN
OBSERVEDSat Nov 27, 05:30 UTC
NOWSat Nov 27, 15:19 UTC
AGE9:49 hr ago
WINDW at 3 mph
VISIBILITY16 miles
CLOUDSpartly cloudy
TEMP84°F (29°C)
DEWPT73°F (23°C)
HUMIDITY70%
HEAT INDEX90°F (32°C)
BAROMETER1009 hPa (29.8 in Hg)
METARWIDN 270530Z 27003KT 9999 FEW015 29/23 Q1009 NOSIG= ? METAR WAOO 270530Z 23008KT 9999 SCT017 30/24 Q1007 NOSIG

Top Private Jet Destinations Near Kijang Airport

Call us on +1-877-727-2538 (24 Hours) to Hire a Private Jet or Get a Quick Quote.

Find Airports Near any Location

Processing
...